Time;durP1;ratioP1;P1;durP2;ratioP2;P2;SDS_P1;SDS_P2;PMS_P1;PMS_P2;Temp;Humidity;BMP_temperature;BMP_pressure;BME280_temperature;BME280_humidity;BME280_pressure;Samples;Min_cycle;Max_cycle;Signal;HPM_P1;HPM_P2
2023/12/16 00:00:45;;;;;;;0.00;0.00;;;5.70;99.90;;;;;;5111261;28;20215;-73
2023/12/16 00:03:11;;;;;;;0.00;0.00;;;5.70;99.90;;;;;;5111044;28;20179;-74
2023/12/16 00:05:37;;;;;;;0.00;0.00;;;5.60;99.90;;;;;;5111390;28;20551;-73
2023/12/16 00:08:03;;;;;;;0.00;0.00;;;5.60;99.90;;;;;;5111208;28;20178;-72
2023/12/16 00:10:28;;;;;;;0.25;0.25;;;5.60;99.90;;;;;;5111368;28;20293;-73
2023/12/16 00:12:54;;;;;;;0.10;0.10;;;5.60;99.90;;;;;;5111193;28;20167;-73
2023/12/16 00:15:19;;;;;;;0.30;0.30;;;5.60;99.90;;;;;;5107449;28;20646;-73
2023/12/16 00:17:45;;;;;;;0.10;0.10;;;5.60;99.90;;;;;;5096587;28;20739;-73
2023/12/16 00:20:11;;;;;;;0.03;0.03;;;5.60;99.90;;;;;;5109400;28;20227;-73
2023/12/16 00:22:39;;;;;;;0.00;0.00;;;5.60;99.90;;;;;;5106793;28;20179;-73
2023/12/16 00:25:08;;;;;;;0.20;0.20;;;5.60;99.90;;;;;;5093510;28;20184;-73
2023/12/16 00:27:35;;;;;;;0.28;0.22;;;5.60;99.90;;;;;;5095426;28;20549;-73
2023/12/16 00:30:00;;;;;;;0.08;0.08;;;5.60;99.90;;;;;;5095191;28;20187;-73
2023/12/16 00:32:26;;;;;;;0.08;0.08;;;5.60;99.90;;;;;;5095188;28;20192;-73
2023/12/16 00:34:52;;;;;;;0.28;0.28;;;5.60;99.90;;;;;;5096397;28;21045;-73
2023/12/16 00:37:17;;;;;;;0.00;0.00;;;5.60;99.90;;;;;;5105882;28;20219;-73
2023/12/16 00:39:43;;;;;;;0.10;0.10;;;5.50;99.90;;;;;;5094968;28;20200;-73
2023/12/16 00:42:08;;;;;;;0.13;0.13;;;5.50;99.90;;;;;;5098831;28;20726;-73
2023/12/16 00:44:34;;;;;;;0.00;0.00;;;5.50;99.90;;;;;;5102819;28;20179;-73
2023/12/16 00:47:00;;;;;;;1.08;0.38;;;5.40;99.90;;;;;;5096198;28;20183;-73
2023/12/16 00:49:27;;;;;;;0.00;0.00;;;5.50;99.90;;;;;;5101439;28;20176;-73
2023/12/16 00:51:52;;;;;;;0.00;0.00;;;5.40;99.90;;;;;;5098613;28;20638;-72
2023/12/16 00:54:18;;;;;;;0.00;0.00;;;5.40;99.90;;;;;;5103894;28;20259;-73
2023/12/16 00:56:43;;;;;;;0.00;0.00;;;5.40;99.90;;;;;;5095908;28;20181;-72
2023/12/16 00:59:09;;;;;;;0.00;0.00;;;5.30;99.90;;;;;;5109739;28;20186;-73
2023/12/16 01:01:34;;;;;;;0.03;0.03;;;5.30;99.90;;;;;;5105198;28;20573;-73
2023/12/16 01:04:00;;;;;;;0.10;0.10;;;5.30;99.90;;;;;;5109309;28;20198;-72
2023/12/16 01:06:26;;;;;;;0.00;0.00;;;5.30;99.90;;;;;;5102976;28;20187;-73
2023/12/16 01:08:51;;;;;;;0.10;0.10;;;5.20;99.90;;;;;;5102152;28;20195;-72
2023/12/16 01:11:17;;;;;;;0.10;0.10;;;5.20;99.90;;;;;;5109943;28;20179;-72
2023/12/16 01:13:42;;;;;;;0.20;0.20;;;5.20;99.90;;;;;;5096957;28;20639;-73
2023/12/16 01:16:08;;;;;;;0.00;0.00;;;5.20;99.90;;;;;;5109257;28;20544;-73
2023/12/16 01:18:33;;;;;;;0.00;0.00;;;5.20;99.90;;;;;;5102905;28;20195;-73
2023/12/16 01:21:06;;;;;;;0.05;0.05;;;5.20;99.90;;;;;;5113723;28;20211;-72
2023/12/16 01:23:32;;;;;;;0.00;0.00;;;5.10;99.90;;;;;;5097467;28;20241;-72
2023/12/16 01:25:57;;;;;;;0.05;0.05;;;5.20;99.90;;;;;;5097247;28;20585;-73
2023/12/16 01:28:23;;;;;;;0.00;0.00;;;5.10;99.90;;;;;;5098603;28;20176;-72
2023/12/16 01:30:48;;;;;;;0.00;0.00;;;5.10;99.90;;;;;;5101471;28;20191;-72
2023/12/16 01:33:14;;;;;;;0.15;0.15;;;5.10;99.90;;;;;;5113320;28;20232;-73
2023/12/16 01:35:40;;;;;;;0.00;0.00;;;5.10;99.90;;;;;;5103548;28;20207;-72
2023/12/16 01:38:05;;;;;;;0.00;0.00;;;5.10;99.90;;;;;;5108516;28;20279;-73
2023/12/16 01:40:31;;;;;;;0.00;0.00;;;5.10;99.90;;;;;;5104098;28;20216;-72
2023/12/16 01:42:56;;;;;;;0.00;0.00;;;5.20;99.90;;;;;;5103842;28;20183;-72
2023/12/16 01:45:22;;;;;;;0.10;0.10;;;5.20;99.90;;;;;;5093771;28;20184;-73
2023/12/16 01:47:48;;;;;;;0.00;0.00;;;5.20;99.90;;;;;;5094061;28;20216;-72
2023/12/16 01:50:14;;;;;;;0.00;0.00;;;5.20;99.90;;;;;;5098183;28;20262;-73
2023/12/16 01:52:41;;;;;;;0.10;0.10;;;5.30;99.90;;;;;;5113022;28;20179;-72
2023/12/16 01:55:09;;;;;;;0.00;0.00;;;5.30;99.90;;;;;;5101271;28;20263;-73
2023/12/16 01:57:36;;;;;;;0.00;0.00;;;5.30;99.90;;;;;;5107770;28;20233;-73
2023/12/16 02:00:03;;;;;;;0.00;0.00;;;5.30;99.90;;;;;;5109442;28;20213;-72
2023/12/16 02:02:28;;;;;;;0.00;0.00;;;5.30;99.90;;;;;;5103589;28;20194;-72
2023/12/16 02:04:54;;;;;;;0.00;0.00;;;5.30;99.90;;;;;;5103186;28;20180;-72
2023/12/16 02:07:20;;;;;;;0.00;0.00;;;5.30;99.90;;;;;;5106975;28;20182;-72
2023/12/16 02:09:46;;;;;;;0.00;0.00;;;5.40;99.90;;;;;;5096106;28;20184;-73
2023/12/16 02:12:11;;;;;;;0.10;0.10;;;5.40;99.90;;;;;;5109470;28;20180;-73
2023/12/16 02:14:37;;;;;;;0.00;0.00;;;5.40;99.90;;;;;;5100045;28;20172;-73
2023/12/16 02:17:03;;;;;;;0.65;0.60;;;5.40;99.90;;;;;;5102894;28;20642;-73
2023/12/16 02:19:29;;;;;;;0.00;0.00;;;5.40;99.90;;;;;;5106402;28;20240;-73
2023/12/16 02:21:55;;;;;;;0.00;0.00;;;5.40;99.90;;;;;;5109670;28;20331;-73
2023/12/16 02:24:21;;;;;;;0.05;0.05;;;5.40;99.90;;;;;;5096380;28;20647;-73
2023/12/16 02:26:47;;;;;;;0.00;0.00;;;5.40;99.90;;;;;;5106285;27;20184;-73
2023/12/16 02:29:12;;;;;;;0.05;0.05;;;5.50;99.90;;;;;;5102866;28;20175;-72
2023/12/16 02:31:38;;;;;;;0.00;0.00;;;5.50;99.90;;;;;;5099625;28;20211;-73
2023/12/16 02:34:04;;;;;;;0.00;0.00;;;5.50;99.90;;;;;;5107048;28;20188;-73
2023/12/16 02:36:30;;;;;;;0.17;0.17;;;5.50;99.90;;;;;;5111286;28;20216;-73
2023/12/16 02:38:55;;;;;;;0.00;0.00;;;5.50;99.90;;;;;;5092910;28;20176;-72
2023/12/16 02:41:23;;;;;;;0.00;0.00;;;5.50;99.90;;;;;;5102341;28;21090;-73
2023/12/16 02:43:48;;;;;;;0.00;0.00;;;5.50;99.90;;;;;;5100993;28;20777;-73
2023/12/16 02:46:14;;;;;;;0.00;0.00;;;5.60;99.90;;;;;;5096167;28;20194;-73
2023/12/16 02:48:40;;;;;;;0.00;0.00;;;5.60;99.90;;;;;;5094032;28;20179;-72
2023/12/16 02:51:05;;;;;;;0.00;0.00;;;5.60;99.90;;;;;;5107862;28;20222;-73
2023/12/16 02:53:31;;;;;;;0.00;0.00;;;5.60;99.90;;;;;;5107744;28;20187;-72
2023/12/16 02:55:56;;;;;;;0.00;0.00;;;5.60;99.90;;;;;;5096176;28;20796;-73
2023/12/16 02:58:22;;;;;;;0.10;0.10;;;5.60;99.90;;;;;;5108748;28;20180;-73
2023/12/16 03:00:47;;;;;;;0.00;0.00;;;5.60;99.90;;;;;;5105402;28;20259;-72
2023/12/16 03:03:13;;;;;;;0.00;0.00;;;5.60;99.90;;;;;;5094923;28;20577;-73
2023/12/16 03:05:38;;;;;;;0.00;0.00;;;5.60;99.90;;;;;;5104119;28;20214;-72
2023/12/16 03:08:04;;;;;;;0.00;0.00;;;5.60;99.90;;;;;;5096199;28;20252;-73
2023/12/16 03:10:29;;;;;;;0.00;0.00;;;5.60;99.90;;;;;;5108748;28;20175;-73
2023/12/16 03:12:55;;;;;;;0.08;0.08;;;5.60;99.90;;;;;;5095440;28;20702;-74
2023/12/16 03:15:21;;;;;;;0.00;0.00;;;5.60;99.90;;;;;;5101638;28;20184;-73
2023/12/16 03:17:47;;;;;;;0.00;0.00;;;5.60;99.90;;;;;;5098627;28;20666;-72
2023/12/16 03:20:12;;;;;;;0.00;0.00;;;5.70;99.90;;;;;;5102721;28;20298;-73
2023/12/16 03:22:38;;;;;;;0.00;0.00;;;5.60;99.90;;;;;;5095340;28;20236;-73
2023/12/16 03:25:04;;;;;;;0.00;0.00;;;5.70;99.90;;;;;;5109603;28;20650;-73
2023/12/16 03:27:30;;;;;;;0.00;0.00;;;5.70;99.90;;;;;;5101032;28;20690;-73
2023/12/16 03:29:55;;;;;;;0.00;0.00;;;5.70;99.90;;;;;;5105938;28;20218;-73
2023/12/16 03:32:21;;;;;;;0.00;0.00;;;5.70;99.90;;;;;;5094820;28;20188;-73
2023/12/16 03:34:46;;;;;;;0.00;0.00;;;5.70;99.90;;;;;;5106948;28;20542;-73
2023/12/16 03:37:12;;;;;;;0.00;0.00;;;5.70;99.90;;;;;;5096035;28;20588;-72
2023/12/16 03:39:42;;;;;;;0.00;0.00;;;5.70;99.90;;;;;;5102924;28;20221;-73
2023/12/16 03:42:07;;;;;;;0.00;0.00;;;5.70;99.90;;;;;;5107191;28;20193;-72
2023/12/16 03:44:33;;;;;;;0.13;0.10;;;5.70;99.90;;;;;;5095497;28;20180;-72
2023/12/16 03:46:59;;;;;;;0.10;0.10;;;5.70;99.90;;;;;;5107080;28;20176;-73
2023/12/16 03:49:24;;;;;;;0.00;0.00;;;5.70;99.90;;;;;;5101722;28;20267;-73
2023/12/16 03:51:50;;;;;;;0.00;0.00;;;5.60;99.90;;;;;;5100275;28;20183;-72
2023/12/16 03:54:16;;;;;;;0.00;0.00;;;5.60;99.90;;;;;;5100273;28;20176;-73
2023/12/16 03:56:42;;;;;;;0.00;0.00;;;5.60;99.90;;;;;;5104456;28;20871;-73
2023/12/16 03:59:08;;;;;;;0.00;0.00;;;5.60;99.90;;;;;;5096841;28;20259;-73
2023/12/16 04:01:33;;;;;;;0.00;0.00;;;5.60;99.90;;;;;;5103571;28;20302;-73
2023/12/16 04:03:59;;;;;;;0.00;0.00;;;5.60;99.90;;;;;;5097134;28;20691;-74
2023/12/16 04:06:25;;;;;;;0.75;0.55;;;5.60;99.90;;;;;;5106207;28;20180;-72
2023/12/16 04:08:51;;;;;;;0.30;0.30;;;5.60;99.90;;;;;;5106599;28;20184;-72
2023/12/16 04:11:16;;;;;;;0.00;0.00;;;5.60;99.90;;;;;;5099151;28;20190;-73
2023/12/16 04:13:42;;;;;;;0.10;0.10;;;5.60;99.90;;;;;;5099290;28;20534;-73
2023/12/16 04:16:08;;;;;;;0.03;0.03;;;5.60;99.90;;;;;;5105130;28;20207;-73
2023/12/16 04:18:34;;;;;;;0.00;0.00;;;5.60;99.90;;;;;;5094311;28;20184;-74
2023/12/16 04:21:01;;;;;;;0.00;0.00;;;5.60;99.90;;;;;;5104410;28;20214;-72
2023/12/16 04:23:27;;;;;;;0.90;0.28;;;5.60;99.90;;;;;;5101779;28;20629;-73
2023/12/16 04:25:53;;;;;;;0.00;0.00;;;5.60;99.90;;;;;;5102665;28;20207;-72
2023/12/16 04:28:18;;;;;;;0.10;0.10;;;5.60;99.90;;;;;;5094489;28;20219;-73
2023/12/16 04:30:44;;;;;;;0.10;0.10;;;5.60;99.90;;;;;;5107215;28;20259;-73
2023/12/16 04:33:09;;;;;;;0.00;0.00;;;5.50;99.90;;;;;;5097295;28;20182;-73
2023/12/16 04:35:35;;;;;;;0.03;0.03;;;5.50;99.90;;;;;;5100923;28;20188;-74
2023/12/16 04:38:00;;;;;;;0.00;0.00;;;5.50;99.90;;;;;;5091122;28;20226;-73
2023/12/16 04:40:27;;;;;;;0.00;0.00;;;5.50;99.90;;;;;;5091178;28;20211;-74
2023/12/16 04:42:52;;;;;;;0.00;0.00;;;5.50;99.90;;;;;;5092432;28;20204;-73
2023/12/16 04:45:18;;;;;;;0.00;0.00;;;5.50;99.90;;;;;;5096664;28;20214;-73
2023/12/16 04:47:43;;;;;;;0.00;0.00;;;5.50;99.90;;;;;;5096200;28;20172;-73
2023/12/16 04:50:09;;;;;;;0.00;0.00;;;5.50;99.90;;;;;;5095478;28;20600;-73
2023/12/16 04:52:34;;;;;;;0.00;0.00;;;5.50;99.90;;;;;;5091484;28;20176;-74
2023/12/16 04:55:00;;;;;;;0.10;0.10;;;5.50;99.90;;;;;;5091411;28;20179;-73
2023/12/16 04:57:25;;;;;;;0.47;0.47;;;5.50;99.90;;;;;;5097636;28;20650;-73
2023/12/16 04:59:51;;;;;;;0.00;0.00;;;5.50;99.90;;;;;;5105325;28;20686;-73
2023/12/16 05:02:16;;;;;;;0.32;0.32;;;5.40;99.90;;;;;;5092182;28;20592;-73
2023/12/16 05:04:42;;;;;;;0.20;0.20;;;5.40;99.90;;;;;;5102481;28;20176;-73
2023/12/16 05:07:07;;;;;;;0.00;0.00;;;5.50;99.90;;;;;;5109774;28;20596;-73
2023/12/16 05:09:33;;;;;;;0.00;0.00;;;5.40;99.90;;;;;;5093405;28;20629;-73
2023/12/16 05:11:59;;;;;;;1.02;0.75;;;5.40;99.90;;;;;;5104007;28;20301;-73
2023/12/16 05:14:25;;;;;;;0.05;0.05;;;5.40;99.90;;;;;;5113891;28;20270;-73
2023/12/16 05:16:50;;;;;;;0.40;0.40;;;5.40;99.90;;;;;;5096979;28;20266;-73
2023/12/16 05:19:16;;;;;;;0.20;0.20;;;5.40;99.90;;;;;;5104285;28;20186;-73
2023/12/16 05:21:41;;;;;;;0.10;0.10;;;5.40;99.90;;;;;;5111888;28;20211;-73
2023/12/16 05:24:06;;;;;;;0.00;0.00;;;5.40;99.90;;;;;;5108367;28;20207;-73
2023/12/16 05:26:32;;;;;;;0.60;0.60;;;5.50;99.90;;;;;;5098076;28;20198;-73
2023/12/16 05:28:57;;;;;;;0.10;0.10;;;5.50;99.90;;;;;;5096579;28;20169;-73
2023/12/16 05:31:23;;;;;;;0.00;0.00;;;5.50;99.90;;;;;;5095356;28;20191;-74
2023/12/16 05:33:49;;;;;;;0.00;0.00;;;5.50;99.90;;;;;;5094048;28;20697;-73
2023/12/16 05:36:14;;;;;;;0.32;0.32;;;5.50;99.90;;;;;;5093941;28;20233;-73
2023/12/16 05:38:40;;;;;;;0.08;0.08;;;5.40;99.90;;;;;;5099168;28;20195;-73
2023/12/16 05:41:06;;;;;;;0.10;0.10;;;5.50;99.90;;;;;;5106918;28;20272;-73
2023/12/16 05:43:32;;;;;;;0.00;0.00;;;5.40;99.90;;;;;;5099577;28;20183;-74
2023/12/16 05:45:57;;;;;;;0.00;0.00;;;5.50;99.90;;;;;;5110089;28;20267;-73
2023/12/16 05:48:23;;;;;;;0.57;0.57;;;5.40;99.90;;;;;;5099580;28;20179;-73
2023/12/16 05:50:48;;;;;;;0.00;0.00;;;5.40;99.90;;;;;;5095172;28;20577;-72
2023/12/16 05:53:14;;;;;;;0.00;0.00;;;5.50;99.90;;;;;;5100358;28;20179;-73
2023/12/16 05:55:39;;;;;;;1.33;0.28;;;5.50;99.90;;;;;;5111542;28;20172;-73
2023/12/16 05:58:06;;;;;;;0.35;0.35;;;5.50;99.90;;;;;;5096471;28;20229;-73
2023/12/16 06:00:31;;;;;;;0.00;0.00;;;5.50;99.90;;;;;;5111553;28;20230;-73
2023/12/16 06:02:57;;;;;;;0.00;0.00;;;5.50;99.90;;;;;;5097323;28;20180;-74
2023/12/16 06:05:22;;;;;;;0.22;0.05;;;5.50;99.90;;;;;;5109542;28;20190;-74
2023/12/16 06:07:48;;;;;;;0.00;0.00;;;5.50;99.90;;;;;;5104479;28;20590;-74
2023/12/16 06:10:14;;;;;;;0.00;0.00;;;5.50;99.90;;;;;;5093160;28;20179;-74
2023/12/16 06:12:40;;;;;;;0.00;0.00;;;5.50;99.90;;;;;;5113035;27;20175;-74
2023/12/16 06:15:06;;;;;;;0.10;0.10;;;5.50;99.90;;;;;;5096435;28;20171;-73
2023/12/16 06:17:32;;;;;;;0.00;0.00;;;5.50;99.90;;;;;;5105852;28;20184;-73
2023/12/16 06:19:57;;;;;;;0.10;0.10;;;5.50;99.90;;;;;;5103176;28;20758;-73
2023/12/16 06:22:24;;;;;;;0.00;0.00;;;5.50;99.90;;;;;;5097743;28;20184;-73
2023/12/16 06:24:49;;;;;;;0.00;0.00;;;5.50;99.90;;;;;;5107152;28;20179;-74
2023/12/16 06:27:15;;;;;;;0.08;0.08;;;5.60;99.90;;;;;;5096840;28;20184;-74
2023/12/16 06:29:40;;;;;;;0.10;0.10;;;5.60;99.90;;;;;;5104638;28;20182;-74
2023/12/16 06:32:06;;;;;;;0.10;0.10;;;5.50;99.90;;;;;;5103862;28;20191;-74
2023/12/16 06:34:32;;;;;;;0.00;0.00;;;5.50;99.90;;;;;;5096954;28;20188;-75
2023/12/16 06:36:58;;;;;;;0.00;0.00;;;5.50;99.90;;;;;;5106038;28;20227;-75
2023/12/16 06:39:23;;;;;;;0.00;0.00;;;5.50;99.90;;;;;;5093482;28;20378;-75
2023/12/16 06:41:50;;;;;;;0.00;0.00;;;5.50;99.90;;;;;;5100764;28;20242;-74
2023/12/16 06:44:15;;;;;;;0.00;0.00;;;5.50;99.90;;;;;;5100274;28;20172;-75
2023/12/16 06:46:41;;;;;;;0.00;0.00;;;5.50;99.90;;;;;;5106192;28;20646;-75
2023/12/16 06:49:06;;;;;;;0.00;0.00;;;5.50;99.90;;;;;;5109040;28;20718;-74
2023/12/16 06:51:32;;;;;;;0.00;0.00;;;5.50;99.90;;;;;;5098248;28;20659;-75
2023/12/16 06:53:57;;;;;;;0.00;0.00;;;5.50;99.90;;;;;;5108444;28;20252;-68
2023/12/16 06:56:23;;;;;;;0.00;0.00;;;5.60;99.90;;;;;;5093664;28;20172;-72
2023/12/16 06:58:49;;;;;;;0.00;0.00;;;5.60;99.90;;;;;;5098648;28;20260;-66
2023/12/16 07:01:15;;;;;;;0.00;0.00;;;5.60;99.90;;;;;;5092132;28;20713;-68
2023/12/16 07:03:40;;;;;;;0.00;0.00;;;5.60;99.90;;;;;;5092029;28;20184;-68
2023/12/16 07:06:07;;;;;;;0.00;0.00;;;5.60;99.90;;;;;;5093104;28;20172;-69
2023/12/16 07:08:35;;;;;;;1.70;1.02;;;5.60;99.90;;;;;;5092054;28;20206;-68
2023/12/16 07:11:01;;;;;;;0.95;0.95;;;5.60;99.90;;;;;;5095433;28;20573;-68
2023/12/16 07:13:27;;;;;;;0.10;0.10;;;5.60;99.90;;;;;;5091925;28;20172;-66
2023/12/16 07:15:52;;;;;;;0.00;0.00;;;5.70;99.90;;;;;;5104384;28;20179;-68
2023/12/16 07:18:18;;;;;;;0.32;0.32;;;5.70;99.90;;;;;;5112350;28;20703;-68
2023/12/16 07:20:44;;;;;;;0.10;0.10;;;5.70;99.90;;;;;;5111004;28;20203;-72
2023/12/16 07:23:09;;;;;;;0.00;0.00;;;5.70;99.90;;;;;;5106685;28;20183;-70
2023/12/16 07:25:35;;;;;;;0.00;0.00;;;5.70;99.90;;;;;;5099567;28;20225;-70
2023/12/16 07:28:00;;;;;;;0.00;0.00;;;5.70;99.90;;;;;;5091628;28;20251;-72
2023/12/16 07:30:26;;;;;;;0.10;0.10;;;5.70;99.90;;;;;;5110713;28;20515;-71
2023/12/16 07:32:51;;;;;;;0.10;0.10;;;5.70;99.90;;;;;;5111734;28;20179;-71
2023/12/16 07:35:17;;;;;;;0.03;0.03;;;5.70;99.90;;;;;;5111853;28;20707;-71
2023/12/16 07:37:43;;;;;;;0.05;0.05;;;5.70;99.90;;;;;;5101031;28;20231;-72
2023/12/16 07:40:10;;;;;;;0.00;0.00;;;5.70;99.90;;;;;;5091326;28;20243;-71
2023/12/16 07:42:39;;;;;;;0.10;0.10;;;5.70;99.90;;;;;;5091333;28;20187;-71
2023/12/16 07:45:05;;;;;;;0.00;0.00;;;5.70;99.90;;;;;;5091178;28;20184;-72
2023/12/16 07:47:32;;;;;;;0.17;0.15;;;5.80;99.90;;;;;;5096272;28;20180;-72
2023/12/16 07:49:58;;;;;;;0.00;0.00;;;5.80;99.90;;;;;;5100179;28;20175;-71
2023/12/16 07:52:23;;;;;;;0.00;0.00;;;5.80;99.90;;;;;;5114183;27;20175;-71
2023/12/16 07:54:50;;;;;;;0.00;0.00;;;5.80;99.90;;;;;;5106595;27;20588;-72
2023/12/16 07:57:15;;;;;;;0.00;0.00;;;5.90;99.90;;;;;;5093286;28;20675;-71
2023/12/16 07:59:41;;;;;;;0.00;0.00;;;6.00;99.90;;;;;;5122797;27;20313;-72
2023/12/16 08:02:08;;;;;;;0.00;0.00;;;6.00;99.90;;;;;;5104128;28;20187;-72
2023/12/16 08:04:34;;;;;;;1.17;0.95;;;6.00;99.90;;;;;;5096324;27;20179;-72
2023/12/16 08:07:00;;;;;;;0.05;0.05;;;6.10;99.90;;;;;;5091895;28;20183;-72
2023/12/16 08:09:25;;;;;;;0.00;0.00;;;6.10;99.90;;;;;;5099932;28;20266;-72
2023/12/16 08:11:54;;;;;;;0.20;0.20;;;6.20;99.90;;;;;;5106240;28;20176;-71
2023/12/16 08:14:20;;;;;;;0.00;0.00;;;6.20;99.90;;;;;;5091123;28;20547;-72
2023/12/16 08:16:45;;;;;;;0.00;0.00;;;6.20;99.90;;;;;;5092213;28;20183;-72
2023/12/16 08:19:11;;;;;;;0.10;0.10;;;6.30;99.90;;;;;;5090946;28;20187;-73
2023/12/16 08:21:36;;;;;;;0.00;0.00;;;6.30;99.90;;;;;;5109727;28;20306;-66
2023/12/16 08:24:02;;;;;;;0.10;0.10;;;6.30;99.90;;;;;;5110924;28;20183;-67
2023/12/16 08:26:28;;;;;;;0.00;0.00;;;6.30;99.90;;;;;;5099779;28;20194;-61
2023/12/16 08:28:53;;;;;;;0.10;0.10;;;6.40;99.90;;;;;;5110974;28;20278;-63
2023/12/16 08:31:19;;;;;;;0.00;0.00;;;6.50;99.90;;;;;;5107715;28;20184;-66
2023/12/16 08:33:45;;;;;;;0.00;0.00;;;6.50;99.90;;;;;;5111136;28;20171;-65
2023/12/16 08:36:10;;;;;;;0.00;0.00;;;6.60;99.90;;;;;;5109190;28;20183;-63
2023/12/16 08:38:36;;;;;;;0.00;0.00;;;6.60;99.90;;;;;;5092969;28;20205;-60
2023/12/16 08:41:06;;;;;;;0.00;0.00;;;6.60;99.90;;;;;;5104738;28;20215;-63
2023/12/16 08:43:32;;;;;;;0.10;0.10;;;6.60;99.90;;;;;;5110873;28;20195;-62
2023/12/16 08:45:57;;;;;;;0.10;0.10;;;6.70;99.90;;;;;;5101187;28;20184;-69
2023/12/16 08:48:23;;;;;;;0.00;0.00;;;6.70;99.90;;;;;;5101299;28;20578;-70
2023/12/16 08:50:48;;;;;;;0.10;0.10;;;6.70;99.90;;;;;;5100057;28;20229;-70
2023/12/16 08:53:14;;;;;;;0.00;0.00;;;6.80;99.90;;;;;;5114599;28;20548;-70
2023/12/16 08:55:42;;;;;;;0.00;0.00;;;6.80;99.90;;;;;;5114872;28;20176;-70
2023/12/16 08:58:08;;;;;;;0.00;0.00;;;6.90;99.90;;;;;;5114620;28;20900;-70
2023/12/16 09:00:34;;;;;;;0.08;0.08;;;7.00;99.90;;;;;;5114694;28;20223;-71
2023/12/16 09:03:00;;;;;;;0.00;0.00;;;7.10;99.90;;;;;;5108805;28;20653;-70
2023/12/16 09:05:27;;;;;;;0.15;0.15;;;7.30;99.90;;;;;;5094282;28;20176;-70
2023/12/16 09:07:52;;;;;;;0.00;0.00;;;7.40;99.90;;;;;;5094269;28;20590;-70
2023/12/16 09:10:18;;;;;;;0.03;0.03;;;7.40;99.90;;;;;;5094256;28;20180;-70
2023/12/16 09:12:44;;;;;;;0.00;0.00;;;7.40;99.90;;;;;;5094224;28;20732;-70
2023/12/16 09:15:09;;;;;;;0.00;0.00;;;7.40;99.90;;;;;;5097689;28;20813;-69
2023/12/16 09:17:35;;;;;;;0.00;0.00;;;7.40;99.90;;;;;;5106561;28;20207;-70
2023/12/16 09:20:01;;;;;;;0.00;0.00;;;7.40;99.90;;;;;;5112536;28;20238;-69
2023/12/16 09:22:26;;;;;;;0.00;0.00;;;7.40;99.90;;;;;;5103231;28;20243;-70
2023/12/16 09:24:52;;;;;;;0.00;0.00;;;7.40;99.90;;;;;;5111824;28;20224;-70
2023/12/16 09:27:17;;;;;;;0.00;0.00;;;7.40;99.90;;;;;;5099250;28;20201;-71
2023/12/16 09:29:43;;;;;;;0.17;0.17;;;7.30;99.90;;;;;;5095296;28;20169;-71
2023/12/16 09:32:08;;;;;;;0.00;0.00;;;7.30;99.90;;;;;;5095177;28;20172;-70
2023/12/16 09:34:34;;;;;;;0.00;0.00;;;7.20;99.90;;;;;;5093928;28;20179;-70
2023/12/16 09:37:00;;;;;;;0.00;0.00;;;7.20;99.90;;;;;;5093602;28;20231;-70
2023/12/16 09:39:25;;;;;;;0.00;0.00;;;7.30;99.90;;;;;;5103876;28;20180;-71
2023/12/16 09:41:52;;;;;;;0.20;0.20;;;7.20;99.90;;;;;;5112317;27;20211;-70
2023/12/16 09:44:19;;;;;;;0.03;0.03;;;7.20;99.90;;;;;;5094563;28;20211;-71
2023/12/16 09:46:45;;;;;;;0.05;0.05;;;7.30;99.90;;;;;;5103327;28;20328;-69
2023/12/16 09:49:12;;;;;;;0.00;0.00;;;7.30;99.90;;;;;;5094790;28;20180;-70
2023/12/16 09:51:42;;;;;;;0.10;0.10;;;7.30;99.90;;;;;;5097639;28;20184;-69
2023/12/16 09:54:07;;;;;;;0.10;0.10;;;7.40;99.90;;;;;;5098090;28;20183;-69
2023/12/16 09:56:33;;;;;;;0.08;0.08;;;7.40;99.90;;;;;;5094541;28;20587;-69
2023/12/16 09:59:00;;;;;;;0.70;0.70;;;7.50;99.90;;;;;;5099456;28;20171;-69
2023/12/16 10:01:25;;;;;;;0.00;0.00;;;7.70;99.90;;;;;;5097633;28;20670;-69
2023/12/16 10:03:52;;;;;;;0.00;0.00;;;7.80;99.90;;;;;;5109826;28;20229;-69
2023/12/16 10:06:17;;;;;;;0.00;0.00;;;7.80;99.90;;;;;;5094105;28;20282;-69
2023/12/16 10:08:44;;;;;;;0.00;0.00;;;7.80;99.90;;;;;;5094170;28;20699;-69
2023/12/16 10:11:09;;;;;;;0.00;0.00;;;7.80;99.90;;;;;;5098126;28;20184;-69
2023/12/16 10:13:59;;;;;;;0.20;0.20;;;7.80;99.90;;;;;;5098645;28;20573;-68
2023/12/16 10:16:25;;;;;;;0.00;0.00;;;7.80;99.90;;;;;;5106824;28;20582;-70
2023/12/16 10:18:52;;;;;;;0.00;0.00;;;7.80;99.90;;;;;;5094011;28;20203;-69
2023/12/16 10:21:23;;;;;;;0.08;0.08;;;7.80;99.90;;;;;;5106908;28;20211;-70
2023/12/16 10:23:48;;;;;;;0.00;0.00;;;7.80;99.90;;;;;;5095475;28;20284;-69
2023/12/16 10:26:14;;;;;;;0.00;0.00;;;7.80;99.90;;;;;;5097150;28;20650;-70
2023/12/16 10:28:40;;;;;;;0.00;0.00;;;7.80;99.90;;;;;;5105727;28;20180;-70
2023/12/16 10:31:05;;;;;;;0.10;0.10;;;7.80;99.90;;;;;;5093973;28;20259;-69
2023/12/16 10:33:31;;;;;;;0.38;0.38;;;7.80;99.90;;;;;;5101832;28;20249;-70
2023/12/16 10:35:57;;;;;;;0.00;0.00;;;7.80;99.90;;;;;;5111239;28;20266;-70
2023/12/16 10:38:25;;;;;;;0.20;0.20;;;7.90;99.90;;;;;;5096054;28;20215;-69
2023/12/16 10:40:52;;;;;;;0.00;0.00;;;8.00;99.90;;;;;;5111302;28;20211;-70
2023/12/16 10:43:17;;;;;;;0.00;0.00;;;8.00;99.90;;;;;;5101837;28;20176;-69
2023/12/16 10:45:43;;;;;;;0.00;0.00;;;8.00;99.90;;;;;;5104076;28;20180;-69
2023/12/16 10:48:10;;;;;;;0.00;0.00;;;8.00;99.90;;;;;;5110182;28;20183;-68
2023/12/16 10:50:42;;;;;;;0.00;0.00;;;8.10;99.90;;;;;;5107646;28;20168;-72
2023/12/16 10:53:23;;;;;;;0.00;0.00;;;8.00;99.90;;;;;;5100515;28;20198;-70
2023/12/16 10:55:58;;;;;;;0.00;0.00;;;8.10;99.90;;;;;;5105102;28;20183;-71
2023/12/16 10:58:30;;;;;;;0.00;0.00;;;8.00;99.90;;;;;;5092295;28;20190;-71
2023/12/16 11:01:09;;;;;;;0.00;0.00;;;8.00;99.90;;;;;;5092115;28;20200;-70
2023/12/16 11:03:46;;;;;;;0.00;0.00;;;8.00;99.90;;;;;;5111456;28;20213;-70
2023/12/16 11:06:24;;;;;;;0.00;0.00;;;8.00;99.90;;;;;;5097582;28;20172;-73
2023/12/16 11:08:52;;;;;;;0.00;0.00;;;8.00;99.90;;;;;;5094610;28;20256;-72
2023/12/16 11:11:19;;;;;;;0.00;0.00;;;8.10;99.90;;;;;;5105925;28;20184;-70
2023/12/16 11:13:45;;;;;;;0.00;0.00;;;8.20;99.90;;;;;;5094326;28;20207;-70
2023/12/16 11:16:17;;;;;;;0.30;0.30;;;8.30;99.90;;;;;;5093169;28;20252;-71
2023/12/16 11:18:48;;;;;;;0.00;0.00;;;8.30;99.90;;;;;;5109048;28;20190;-71
2023/12/16 11:21:17;;;;;;;0.00;0.00;;;8.40;99.90;;;;;;5101487;28;20231;-71
2023/12/16 11:23:46;;;;;;;0.10;0.10;;;8.40;99.90;;;;;;5101284;28;20697;-70
2023/12/16 11:26:11;;;;;;;0.10;0.10;;;8.50;99.90;;;;;;5100273;28;20184;-71
2023/12/16 11:28:37;;;;;;;0.03;0.03;;;8.50;99.90;;;;;;5105730;28;20182;-70
2023/12/16 11:31:03;;;;;;;0.35;0.35;;;8.50;99.90;;;;;;5106835;28;20184;-70
2023/12/16 11:33:46;;;;;;;0.00;0.00;;;8.60;99.90;;;;;;5094661;28;20188;-72
2023/12/16 11:36:14;;;;;;;0.00;0.00;;;8.60;99.90;;;;;;5102366;28;20179;-68
2023/12/16 11:38:44;;;;;;;0.30;0.30;;;8.70;99.90;;;;;;5094087;28;20530;-69
2023/12/16 11:41:49;;;;;;;0.00;0.00;;;8.70;99.90;;;;;;5100660;28;20689;-67
2023/12/16 11:44:14;;;;;;;0.00;0.00;;;8.80;99.90;;;;;;5097812;28;20341;-67
2023/12/16 11:46:43;;;;;;;0.05;0.05;;;8.70;99.90;;;;;;5108080;28;20833;-67
2023/12/16 11:49:11;;;;;;;5.47;0.22;;;8.70;99.90;;;;;;5095120;28;20273;-69
2023/12/16 11:51:38;;;;;;;0.00;0.00;;;8.70;99.90;;;;;;5101828;28;20199;-67
2023/12/16 11:54:05;;;;;;;0.13;0.13;;;8.80;99.90;;;;;;5091043;28;20180;-66
2023/12/16 11:56:31;;;;;;;0.10;0.10;;;8.80;99.90;;;;;;5095807;28;20167;-68
2023/12/16 11:58:59;;;;;;;0.17;0.17;;;8.80;99.90;;;;;;5111673;28;20524;-69
2023/12/16 12:01:26;;;;;;;0.00;0.00;;;8.90;99.90;;;;;;5099210;27;20324;-68
2023/12/16 12:03:53;;;;;;;0.00;0.00;;;8.90;99.90;;;;;;5105415;28;20187;-72
2023/12/16 12:06:19;;;;;;;0.00;0.00;;;8.90;99.90;;;;;;5098337;28;20184;-72
2023/12/16 12:08:46;;;;;;;0.00;0.00;;;8.80;99.90;;;;;;5100834;28;20551;-72
2023/12/16 12:11:12;;;;;;;0.00;0.00;;;8.70;99.90;;;;;;5095080;28;20191;-73
2023/12/16 12:13:38;;;;;;;0.00;0.00;;;8.80;99.90;;;;;;5093987;28;20190;-73
2023/12/16 12:16:05;;;;;;;0.08;0.08;;;8.90;99.90;;;;;;5109210;28;20171;-73
2023/12/16 12:18:30;;;;;;;0.00;0.00;;;9.00;99.90;;;;;;5109931;28;20206;-73
2023/12/16 12:20:56;;;;;;;0.73;0.73;;;9.10;99.90;;;;;;5110405;28;20334;-72
2023/12/16 12:23:22;;;;;;;0.00;0.00;;;9.10;99.90;;;;;;5111350;28;20203;-72
2023/12/16 12:25:55;;;;;;;0.00;0.00;;;9.10;99.90;;;;;;5108085;28;20715;-71
2023/12/16 12:28:20;;;;;;;0.15;0.15;;;9.00;99.90;;;;;;5111630;28;20179;-72
2023/12/16 12:30:46;;;;;;;0.05;0.05;;;9.00;99.90;;;;;;5110255;28;20266;-71
2023/12/16 12:33:11;;;;;;;0.20;0.20;;;9.00;99.90;;;;;;5104720;28;20650;-73
2023/12/16 12:35:37;;;;;;;0.88;0.88;;;9.00;99.90;;;;;;5091071;28;20183;-73
2023/12/16 12:38:03;;;;;;;0.10;0.10;;;8.90;99.90;;;;;;5090485;28;20306;-73
2023/12/16 12:40:28;;;;;;;0.08;0.08;;;8.90;99.90;;;;;;5091060;28;20222;-73
2023/12/16 12:42:58;;;;;;;0.00;0.00;;;8.90;99.90;;;;;;5091301;28;20252;-72
2023/12/16 12:45:34;;;;;;;0.00;0.00;;;8.90;99.90;;;;;;5091062;28;20647;-73
2023/12/16 12:48:13;;;;;;;0.00;0.00;;;8.90;99.90;;;;;;5091311;28;20180;-73
2023/12/16 12:50:40;;;;;;;0.00;0.00;;;9.00;99.90;;;;;;5091259;28;20306;-73
2023/12/16 12:53:16;;;;;;;0.00;0.00;;;9.00;99.90;;;;;;5090717;28;20246;-73